Time;durP1;ratioP1;P1;durP2;ratioP2;P2;SDS_P1;SDS_P2;PMS_P1;PMS_P2;Temp;Humidity;BMP_temperature;BMP_pressure;BME280_temperature;BME280_humidity;BME280_pressure;Samples;Min_cycle;Max_cycle;Signal;HPM_P1;HPM_P2
2021/12/13 00:02:20;;;;;;;10.70;3.08;;;;;;;;;;4996469;28;20068;-89
2021/12/13 00:04:55;;;;;;;9.38;2.90;;;;;;;;;;4997471;28;20057;-89
2021/12/13 00:07:30;;;;;;;4.25;3.10;;;8.20;91.20;;;;;;5006523;28;20030;-89
2021/12/13 00:09:57;;;;;;;8.35;2.90;;;;;;;;;;4988028;28;20442;-90
2021/12/13 00:12:35;;;;;;;10.82;4.50;;;;;;;;;;4979391;28;20034;-89
2021/12/13 00:15:03;;;;;;;4.43;2.70;;;;;;;;;;4999273;28;20053;-90
2021/12/13 00:17:36;;;;;;;5.63;4.30;;;;;;;;;;5007364;28;20053;-88
2021/12/13 00:20:09;;;;;;;8.90;4.50;;;;;;;;;;4995370;28;20022;-88
2021/12/13 00:22:38;;;;;;;7.57;3.58;;;;;;;;;;4991349;28;20608;-90
2021/12/13 00:25:11;;;;;;;10.50;4.43;;;;;;;;;;4985215;28;20474;-90
2021/12/13 00:27:42;;;;;;;8.13;3.33;;;;;;;;;;4983332;28;20430;-89
2021/12/13 00:30:10;;;;;;;5.32;3.53;;;;;;;;;;5006293;28;20018;-90
2021/12/13 00:32:51;;;;;;;6.30;3.05;;;;;;;;;;5000931;28;20025;-89
2021/12/13 00:35:20;;;;;;;6.13;3.13;;;;;;;;;;4998990;28;20034;-89
2021/12/13 00:37:50;;;;;;;4.68;1.85;;;;;;;;;;5007168;28;20053;-89
2021/12/13 00:40:22;;;;;;;7.60;3.38;;;;;;;;;;4998429;28;20034;-88
2021/12/13 00:43:06;;;;;;;10.93;3.70;;;;;;;;;;5003483;28;20057;-89
2021/12/13 00:45:33;;;;;;;10.57;2.78;;;;;;;;;;4989570;28;20041;-90
2021/12/13 00:48:01;;;;;;;8.18;3.75;;;;;;;;;;5010464;28;20161;-89
2021/12/13 00:50:27;;;;;;;4.53;3.03;;;;;;;;;;5005015;28;20053;-89
2021/12/13 00:52:54;;;;;;;8.90;2.42;;;;;;;;;;5006079;28;20072;-89
2021/12/13 00:55:20;;;;;;;19.75;6.75;;;;;;;;;;5002422;28;20033;-89
2021/12/13 00:57:49;;;;;;;18.98;7.57;;;8.10;91.60;;;;;;4994268;28;20538;-90
2021/12/13 01:00:17;;;;;;;8.93;4.97;;;;;;;;;;5007111;28;20528;-90
2021/12/13 01:02:47;;;;;;;6.32;3.90;;;;;;;;;;5002696;28;20026;-89
2021/12/13 01:05:26;;;;;;;11.73;4.75;;;8.10;90.60;;;;;;4999539;28;20026;-89
2021/12/13 01:08:01;;;;;;;10.57;5.85;;;;;;;;;;4991461;28;20041;-91
2021/12/13 01:10:39;;;;;;;15.63;6.68;;;;;;;;;;5001525;28;20022;-90
2021/12/13 01:13:41;;;;;;;11.77;6.05;;;;;;;;;;5001958;28;20499;-90
2021/12/13 01:16:17;;;;;;;12.63;5.57;;;;;;;;;;4968133;28;20027;-90
2021/12/13 01:21:56;;;;;;;16.90;8.20;;;8.00;90.60;;;;;;4968517;28;20617;-89
2021/12/13 01:24:53;;;;;;;15.63;6.30;;;;;;;;;;4971530;28;20057;-89
2021/12/13 01:27:09;;;;;;;11.00;6.35;;;;;;;;;;4969777;28;20484;-89
2021/12/13 01:29:37;;;;;;;18.45;6.55;;;;;;;;;;4968841;28;20110;-89
2021/12/13 01:32:03;;;;;;;;;;;;;;;;;;4969464;28;20031;-90
2021/12/13 01:34:30;;;;;;;16.27;6.25;;;;;;;;;;4969024;28;19925;-90
2021/12/13 01:37:07;;;;;;;;;;;7.70;91.00;;;;;;4971719;28;20045;-89
2021/12/13 01:39:34;;;;;;;13.13;6.53;;;;;;;;;;4962884;28;19910;-90
2021/12/13 01:42:11;;;;;;;13.20;6.78;;;;;;;;;;4967903;28;20042;-89
2021/12/13 01:44:41;;;;;;;13.25;7.00;;;;;;;;;;4952211;28;20046;-89
2021/12/13 01:47:22;;;;;;;18.85;7.28;;;7.80;90.90;;;;;;4950510;28;20577;-89
2021/12/13 01:49:52;;;;;;;20.67;8.30;;;;;;;;;;4970876;28;20161;-91
2021/12/13 01:52:20;;;;;;;22.15;10.25;;;;;;;;;;4991759;28;20042;-89
2021/12/13 01:54:49;;;;;;;11.07;5.53;;;;;;;;;;4981212;28;20026;-89
2021/12/13 01:59:56;;;;;;;13.70;5.55;;;;;;;;;;5010077;28;20022;-89
2021/12/13 02:02:28;;;;;;;18.75;8.30;;;;;;;;;;4999830;28;20029;-89
2021/12/13 02:05:16;;;;;;;13.80;8.32;;;7.90;90.80;;;;;;4997244;28;20021;-88
2021/12/13 02:07:58;;;;;;;21.77;7.45;;;7.90;90.70;;;;;;4999013;28;20041;-90
2021/12/13 02:10:44;;;;;;;12.95;7.93;;;;;;;;;;5008168;28;20037;-89
2021/12/13 02:13:17;;;;;;;13.20;7.82;;;;;;;;;;5000401;28;20100;-89
2021/12/13 02:18:35;;;;;;;11.43;6.63;;;;;;;;;;5004937;28;20096;-89
2021/12/13 02:21:17;;;;;;;14.98;8.90;;;;;;;;;;5007187;28;20045;-90
2021/12/13 02:23:46;;;;;;;13.43;6.50;;;;;;;;;;4999353;28;20109;-88
2021/12/13 02:26:14;;;;;;;13.18;7.70;;;7.70;90.80;;;;;;5005537;28;20489;-88
2021/12/13 02:28:41;;;;;;;;;;;7.80;90.80;;;;;;5001329;28;20014;-89
2021/12/13 02:31:10;;;;;;;14.77;7.70;;;;;;;;;;5006749;28;19920;-89
2021/12/13 02:33:42;;;;;;;20.70;7.90;;;;;;;;;;5003755;28;20030;-89
2021/12/13 02:36:13;;;;;;;12.13;6.85;;;;;;;;;;5000533;28;20061;-89
2021/12/13 02:38:40;;;;;;;13.98;6.47;;;;;;;;;;5004971;28;20023;-89
2021/12/13 02:41:07;;;;;;;15.30;7.70;;;;;;;;;;5004959;28;20034;-90
2021/12/13 02:43:39;;;;;;;14.18;7.20;;;7.80;90.90;;;;;;4984057;28;20037;-90
2021/12/13 02:46:05;;;;;;;13.88;7.20;;;;;;;;;;4985261;28;20781;-89
2021/12/13 02:48:39;;;;;;;15.25;6.30;;;;;;;;;;4995902;28;20037;-89
2021/12/13 02:51:05;;;;;;;19.83;8.27;;;;;;;;;;4997972;28;20034;-89
2021/12/13 02:53:56;;;;;;;18.20;9.93;;;7.90;90.40;;;;;;4997278;28;20192;-90
2021/12/13 02:56:29;;;;;;;20.50;8.30;;;7.90;90.70;;;;;;4995004;28;20410;-88
2021/12/13 02:58:57;;;;;;;14.75;7.22;;;8.00;90.70;;;;;;4995776;28;20054;-89
2021/12/13 03:01:29;;;;;;;19.63;7.68;;;;;;;;;;5002198;28;20064;-90
2021/12/13 03:03:57;;;;;;;28.20;9.73;;;;;;;;;;4999854;28;20034;-89
2021/12/13 03:06:34;;;;;;;11.98;7.13;;;7.90;91.00;;;;;;4999375;28;20034;-90
2021/12/13 03:09:03;;;;;;;15.25;7.13;;;;;;;;;;4989029;28;20029;-89
2021/12/13 03:11:32;;;;;;;14.77;6.65;;;;;;;;;;4999548;28;20050;-89
2021/12/13 03:14:08;;;;;;;23.92;9.25;;;;;;;;;;5009451;28;20502;-90
2021/12/13 03:16:39;;;;;;;20.20;7.63;;;;;;;;;;4999719;28;20062;-89
2021/12/13 03:19:08;;;;;;;11.90;5.97;;;;;;;;;;5000125;28;20026;-89
2021/12/13 03:22:13;;;;;;;12.05;6.13;;;7.90;90.50;;;;;;5007288;28;20022;-91
2021/12/13 03:24:42;;;;;;;14.32;7.25;;;;;;;;;;5005147;28;20053;-89
2021/12/13 03:27:19;;;;;;;17.35;6.97;;;;;;;;;;5002297;28;20029;-89
2021/12/13 03:29:54;;;;;;;21.30;9.57;;;;;;;;;;5000997;28;20873;-90
2021/12/13 03:32:21;;;;;;;19.95;7.70;;;;;;;;;;4992478;28;20492;-89
2021/12/13 03:35:19;;;;;;;23.38;8.50;;;8.00;90.60;;;;;;5007096;28;20057;-88
2021/12/13 03:37:45;;;;;;;21.23;8.55;;;;;;;;;;4925743;29;20686;-91
2021/12/13 03:40:16;;;;;;;15.60;9.05;;;;;;;;;;4949245;29;20039;-91
2021/12/13 03:42:46;;;;;;;15.13;6.88;;;8.00;90.50;;;;;;4945862;28;20039;-91
2021/12/13 03:45:28;;;;;;;15.60;8.55;;;;;;;;;;4946783;28;20078;-90
2021/12/13 03:47:56;;;;;;;21.27;7.80;;;;;;;;;;4949982;29;20095;-89
2021/12/13 03:50:24;;;;;;;11.55;7.05;;;;;;;;;;4943863;29;20024;-89
2021/12/13 03:52:53;;;;;;;18.25;6.68;;;;;;;;;;4934170;29;20027;-89
2021/12/13 03:55:22;;;;;;;25.10;9.52;;;8.00;90.40;;;;;;4942683;29;20047;-88
2021/12/13 03:57:51;;;;;;;19.70;10.75;;;;;;;;;;4947642;28;20031;-90
2021/12/13 04:00:32;;;;;;;16.98;9.93;;;;;;;;;;4946523;28;20038;-90
2021/12/13 04:03:00;;;;;;;21.17;8.55;;;8.00;90.40;;;;;;4947701;28;20525;-89
2021/12/13 04:05:28;;;;;;;23.25;9.98;;;8.00;90.20;;;;;;4945030;28;20023;-90
2021/12/13 04:07:57;;;;;;;20.30;8.38;;;;;;;;;;4943823;29;20515;-89
2021/12/13 04:10:25;;;;;;;20.67;8.45;;;;;;;;;;4926391;29;20403;-87
2021/12/13 04:12:53;;;;;;;17.30;7.40;;;;;;;;;;4943535;29;20545;-90
2021/12/13 04:15:29;;;;;;;17.02;7.32;;;7.90;90.30;;;;;;4994427;28;20092;-90
2021/12/13 04:18:28;;;;;;;24.83;8.65;;;7.90;90.50;;;;;;5009016;28;20130;-89
2021/12/13 04:20:46;;;;;;;10.73;6.60;;;;;;;;;;5001322;28;20022;-91
2021/12/13 04:23:18;;;;;;;17.00;6.28;;;;;;;;;;5005525;28;20037;-88
2021/12/13 04:25:46;;;;;;;26.52;6.65;;;;;;;;;;4983923;28;20113;-90
2021/12/13 04:28:17;;;;;;;;;;;7.90;90.50;;;;;;4994929;28;20037;-89
2021/12/13 04:30:46;;;;;;;10.88;6.22;;;;;;;;;;4993881;28;19912;-88
2021/12/13 04:33:23;;;;;;;8.25;5.65;;;;;;;;;;5005202;28;20120;-90
2021/12/13 04:35:52;;;;;;;13.63;6.60;;;;;;;;;;5004232;28;20093;-89
2021/12/13 04:38:21;;;;;;;29.80;8.98;;;;;;;;;;5008361;28;20037;-89
2021/12/13 04:40:47;;;;;;;13.70;6.65;;;;;;;;;;5007783;28;20025;-90
2021/12/13 04:43:15;;;;;;;10.00;6.68;;;;;;;;;;5007721;28;20029;-89
2021/12/13 04:45:41;;;;;;;;;;;;;;;;;;5009460;28;20065;-89
2021/12/13 04:48:09;;;;;;;6.43;3.80;;;;;;;;;;5005143;28;19905;-90
2021/12/13 04:50:35;;;;;;;7.88;3.75;;;;;;;;;;5005822;28;20079;-90
2021/12/13 04:53:02;;;;;;;11.13;4.75;;;;;;;;;;4999564;28;20471;-88
2021/12/13 04:55:30;;;;;;;11.00;6.35;;;;;;;;;;4990970;28;20030;-88
2021/12/13 04:57:57;;;;;;;13.70;7.28;;;;;;;;;;5008732;28;20030;-89
2021/12/13 05:00:23;;;;;;;;;;;;;;;;;;5006022;28;20112;-90
2021/12/13 05:02:51;;;;;;;3.17;1.55;;;;;;;;;;5002717;28;20016;-90
2021/12/13 05:05:18;;;;;;;0.85;0.85;;;;;;;;;;5006357;28;20083;-88
2021/12/13 05:07:45;;;;;;;3.63;0.60;;;;;;;;;;5006631;28;20025;-89
2021/12/13 05:10:13;;;;;;;1.17;0.70;;;;;;;;;;4995192;28;20031;-90
2021/12/13 05:12:39;;;;;;;0.90;0.68;;;;;;;;;;4978448;28;20617;-91
2021/12/13 05:15:10;;;;;;;0.77;0.75;;;;;;;;;;5010662;28;20115;-91
2021/12/13 05:17:44;;;;;;;10.98;5.20;;;7.90;90.30;;;;;;5001112;28;20042;-89
2021/12/13 05:20:14;;;;;;;10.63;5.97;;;;;;;;;;5007290;28;20049;-89
2021/12/13 05:22:48;;;;;;;13.02;5.30;;;7.90;90.60;;;;;;5001199;28;20025;-89
2021/12/13 05:25:20;;;;;;;7.93;4.97;;;;;;;;;;5000180;28;20030;-90
2021/12/13 05:27:46;;;;;;;17.83;7.55;;;;;;;;;;5006064;28;20030;-90
2021/12/13 05:30:15;;;;;;;16.17;5.82;;;;;;;;;;5003442;28;20022;-89
2021/12/13 05:32:43;;;;;;;17.02;6.10;;;;;;;;;;5008124;28;20026;-89
2021/12/13 05:35:31;;;;;;;9.45;5.05;;;8.00;90.50;;;;;;4997916;28;20025;-90
2021/12/13 05:38:10;;;;;;;19.35;7.03;;;7.90;90.50;;;;;;5000154;28;20560;-90
2021/12/13 05:40:41;;;;;;;9.35;5.55;;;;;;;;;;4997595;28;20065;-90
2021/12/13 05:43:18;;;;;;;22.25;6.80;;;;;;;;;;5006448;28;20082;-89
2021/12/13 05:45:47;;;;;;;12.15;6.40;;;;;;;;;;5005767;28;20046;-90
2021/12/13 05:48:18;;;;;;;12.13;6.55;;;;;;;;;;4995867;28;20443;-88
2021/12/13 05:50:47;;;;;;;7.18;5.15;;;;;;;;;;5000407;28;20514;-89
2021/12/13 05:53:15;;;;;;;18.33;5.82;;;;;;;;;;5008375;28;20076;-90
2021/12/13 05:56:07;;;;;;;9.25;4.47;;;;;;;;;;4986901;28;20034;-90
2021/12/13 05:58:39;;;;;;;11.65;4.22;;;;;;;;;;4994356;28;20042;-89
2021/12/13 06:01:11;;;;;;;10.73;4.03;;;;;;;;;;5005627;28;20045;-90
2021/12/13 06:03:38;;;;;;;7.90;4.10;;;;;;;;;;5002272;28;20032;-89
2021/12/13 06:06:07;;;;;;;10.77;5.47;;;;;;;;;;5004982;28;20079;-90
2021/12/13 06:08:36;;;;;;;11.50;3.53;;;;;;;;;;5011252;28;20084;-88
2021/12/13 06:11:04;;;;;;;7.07;3.35;;;;;;;;;;4995857;28;20030;-90
2021/12/13 06:13:39;;;;;;;9.80;4.00;;;;;;;;;;5004214;28;20061;-89
2021/12/13 06:16:05;;;;;;;6.32;3.00;;;;;;;;;;4998139;28;20049;-90
2021/12/13 06:18:35;;;;;;;9.90;3.22;;;;;;;;;;5008875;28;20029;-89
2021/12/13 06:21:20;;;;;;;14.27;4.50;;;8.00;90.40;;;;;;4991915;28;20030;-88
2021/12/13 06:23:47;;;;;;;10.52;4.72;;;;;;;;;;4997783;28;20116;-88
2021/12/13 06:26:14;;;;;;;17.80;4.70;;;;;;;;;;4994388;28;20081;-90
2021/12/13 06:28:42;;;;;;;10.50;3.97;;;;;;;;;;4985314;28;20029;-91
2021/12/13 06:31:19;;;;;;;15.77;6.22;;;;;;;;;;4983932;28;20037;-91
2021/12/13 06:33:56;;;;;;;15.98;6.85;;;;;;;;;;5007878;28;20026;-90
2021/12/13 06:36:26;;;;;;;17.02;7.25;;;;;;;;;;4999302;28;20034;-90
2021/12/13 06:38:53;;;;;;;15.43;6.63;;;;;;;;;;5000879;28;20039;-91
2021/12/13 06:41:29;;;;;;;15.35;6.75;;;;;;;;;;4990725;28;20045;-91
2021/12/13 06:44:04;;;;;;;15.60;6.45;;;;;;;;;;5006360;28;20033;-91
2021/12/13 06:46:32;;;;;;;18.83;6.50;;;;;;;;;;5005849;28;20041;-91
2021/12/13 06:49:07;;;;;;;14.70;6.72;;;;;;;;;;5007358;28;20034;-92
2021/12/13 06:51:38;;;;;;;15.80;6.05;;;;;;;;;;5001442;28;20561;-91
2021/12/13 06:54:06;;;;;;;12.45;6.25;;;;;;;;;;4994038;28;20125;-90
2021/12/13 06:56:34;;;;;;;19.60;6.68;;;;;;;;;;5002253;28;20042;-92
2021/12/13 06:59:02;;;;;;;15.25;5.40;;;;;;;;;;5004180;28;20061;-92
2021/12/13 07:01:29;;;;;;;19.33;6.10;;;;;;;;;;4999744;28;20065;-91
2021/12/13 07:03:55;;;;;;;;;;;;;;;;;;5010320;28;20033;-91
2021/12/13 07:06:21;;;;;;;12.50;6.22;;;;;;;;;;4997222;28;19910;-92
2021/12/13 07:09:00;;;;;;;16.33;7.13;;;;;;;;;;4997677;28;20059;-91
2021/12/13 07:11:37;;;;;;;12.93;6.35;;;;;;;;;;4989492;28;20030;-91
2021/12/13 07:14:06;;;;;;;11.60;6.55;;;;;;;;;;4999090;28;20036;-92
2021/12/13 07:16:34;;;;;;;18.25;7.32;;;;;;;;;;5003520;28;20038;-91
2021/12/13 07:19:11;;;;;;;12.25;5.10;;;;;;;;;;4997388;28;20058;-91
2021/12/13 07:21:46;;;;;;;8.55;5.05;;;;;;;;;;5003133;28;20092;-92
2021/12/13 07:24:15;;;;;;;17.75;5.93;;;;;;;;;;5007382;28;20494;-92
2021/12/13 07:26:41;;;;;;;12.30;5.95;;;;;;;;;;4997976;28;20034;-90
2021/12/13 07:29:09;;;;;;;15.80;6.75;;;;;;;;;;5006876;28;20077;-93
2021/12/13 07:31:35;;;;;;;10.65;4.45;;;;;;;;;;4995651;28;20038;-90
2021/12/13 07:34:28;;;;;;;9.77;4.72;;;;;;;;;;4986895;28;20056;-92
2021/12/13 07:36:56;;;;;;;10.90;5.30;;;;;;;;;;5007354;28;20048;-92
2021/12/13 07:39:25;;;;;;;17.63;6.03;;;;;;;;;;5005786;28;20746;-92
2021/12/13 07:41:53;;;;;;;15.05;6.93;;;;;;;;;;4999109;28;20522;-93
2021/12/13 07:44:31;;;;;;;17.05;6.13;;;;;;;;;;5001209;28;20026;-93
2021/12/13 07:47:04;;;;;;;10.60;4.30;;;;;;;;;;5001729;28;20129;-92
2021/12/13 07:49:32;;;;;;;11.10;4.72;;;;;;;;;;4993039;28;20053;-93
2021/12/13 07:52:00;;;;;;;14.40;5.30;;;;;;;;;;4995390;28;20049;-92
2021/12/13 07:54:27;;;;;;;14.63;4.35;;;;;;;;;;4991988;28;20026;-92
2021/12/13 07:56:55;;;;;;;15.32;5.72;;;;;;;;;;5001674;28;20407;-91
2021/12/13 07:59:30;;;;;;;17.60;7.93;;;;;;;;;;5006503;28;20552;-93
2021/12/13 08:01:56;;;;;;;15.50;5.90;;;;;;;;;;5001375;28;20038;-93
2021/12/13 08:04:31;;;;;;;17.95;6.32;;;;;;;;;;5006294;28;20048;-93
2021/12/13 08:07:02;;;;;;;16.98;6.97;;;;;;;;;;5010215;28;20033;-93
2021/12/13 08:09:30;;;;;;;21.33;7.50;;;;;;;;;;5005000;28;20029;-91
2021/12/13 08:11:58;;;;;;;22.40;8.63;;;;;;;;;;4988474;28;20137;-92
2021/12/13 08:14:32;;;;;;;15.63;7.85;;;;;;;;;;5001942;28;20022;-92
2021/12/13 08:17:08;;;;;;;17.33;6.53;;;;;;;;;;5013835;28;20125;-93
2021/12/13 08:19:34;;;;;;;12.38;6.00;;;;;;;;;;5007983;28;20030;-93
2021/12/13 08:22:01;;;;;;;21.38;7.65;;;;;;;;;;4993648;28;20108;-93
2021/12/13 08:24:34;;;;;;;17.23;4.85;;;;;;;;;;5000772;28;20022;-91
2021/12/13 08:27:02;;;;;;;25.92;8.65;;;;;;;;;;5004242;28;20038;-93
2021/12/13 08:29:31;;;;;;;13.57;5.85;;;;;;;;;;5002359;28;20491;-93
2021/12/13 08:31:59;;;;;;;13.27;5.18;;;;;;;;;;4999757;28;20026;-96
2021/12/13 08:34:28;;;;;;;15.00;6.60;;;;;;;;;;4993999;28;20499;-92
2021/12/13 08:36:54;;;;;;;8.68;5.90;;;;;;;;;;4988306;28;20070;-92
2021/12/13 08:39:22;;;;;;;15.20;4.93;;;;;;;;;;4999574;28;21317;-93
2021/12/13 08:41:56;;;;;;;16.48;6.65;;;;;;;;;;4997126;28;20062;-93
2021/12/13 08:44:22;;;;;;;17.27;5.72;;;;;;;;;;5003803;28;20051;-90
2021/12/13 08:46:55;;;;;;;13.90;6.65;;;;;;;;;;4999759;28;20046;-90
2021/12/13 08:49:27;;;;;;;11.43;6.45;;;;;;;;;;5000392;28;20042;-94
2021/12/13 08:52:02;;;;;;;14.23;6.53;;;;;;;;;;4973839;28;20038;-92
2021/12/13 08:55:05;;;;;;;16.48;6.53;;;7.80;90.60;;;;;;5000698;28;20096;-92
2021/12/13 08:57:33;;;;;;;14.02;5.53;;;;;;;;;;5007544;28;20038;-90
2021/12/13 09:00:01;;;;;;;13.50;6.75;;;;;;;;;;4987879;28;20053;-91
2021/12/13 09:02:28;;;;;;;;;;;7.90;90.60;;;;;;5000982;28;20026;-91
2021/12/13 09:05:00;;;;;;;;;;;7.80;90.50;;;;;;4982949;28;20390;-91
2021/12/13 09:07:26;;;;;;;10.65;5.00;;;;;;;;;;5003572;28;20008;-93
2021/12/13 09:09:52;;;;;;;23.63;7.28;;;;;;;;;;5009031;28;20096;-91
2021/12/13 09:12:31;;;;;;;11.80;4.72;;;;;;;;;;4998912;28;20036;-91
2021/12/13 09:14:58;;;;;;;11.32;4.18;;;;;;;;;;5004410;28;20025;-91
2021/12/13 09:17:38;;;;;;;6.15;3.25;;;;;;;;;;5004902;28;20033;-91
2021/12/13 09:20:22;;;;;;;11.32;4.53;;;;;;;;;;5011716;28;20428;-93
2021/12/13 09:23:12;;;;;;;4.93;3.05;;;;;;;;;;5000935;28;20017;-91
2021/12/13 09:25:48;;;;;;;4.07;2.25;;;;;;;;;;4985895;28;20042;-92
2021/12/13 09:28:19;;;;;;;9.53;5.90;;;;;;;;;;5002054;28;20462;-92
2021/12/13 09:30:48;;;;;;;7.18;2.83;;;;;;;;;;5006078;28;20804;-92
2021/12/13 09:33:20;;;;;;;6.60;3.35;;;;;;;;;;5005688;28;20031;-91
2021/12/13 09:35:49;;;;;;;7.85;2.85;;;;;;;;;;4998043;28;20034;-92
2021/12/13 09:38:21;;;;;;;7.63;4.50;;;;;;;;;;4998591;28;20029;-92
2021/12/13 09:41:10;;;;;;;5.78;2.50;;;;;;;;;;5005582;28;20030;-91
2021/12/13 09:43:39;;;;;;;14.35;3.60;;;;;;;;;;4981405;28;20034;-91
2021/12/13 09:46:06;;;;;;;6.15;3.35;;;;;;;;;;4998833;28;20050;-91
2021/12/13 09:48:41;;;;;;;10.43;4.13;;;;;;;;;;5000472;28;20646;-91
2021/12/13 09:51:11;;;;;;;8.50;3.72;;;;;;;;;;5002295;28;20034;-92
2021/12/13 09:53:38;;;;;;;10.00;3.92;;;;;;;;;;5005016;28;20040;-92
2021/12/13 09:56:08;;;;;;;9.68;4.07;;;;;;;;;;5002689;28;20506;-92
2021/12/13 09:58:41;;;;;;;10.48;3.47;;;;;;;;;;4997401;28;20076;-91
2021/12/13 10:01:17;;;;;;;10.38;4.43;;;;;;;;;;5006264;28;20098;-91
2021/12/13 10:03:43;;;;;;;5.38;3.45;;;;;;;;;;4997500;28;20086;-93
2021/12/13 10:06:10;;;;;;;17.80;7.28;;;;;;;;;;5007656;28;20029;-94
2021/12/13 10:09:12;;;;;;;6.90;3.67;;;;;;;;;;5006917;28;20041;-92
2021/12/13 10:11:38;;;;;;;7.18;3.72;;;;;;;;;;4936972;28;20086;-92
2021/12/13 10:14:05;;;;;;;7.22;4.30;;;;;;;;;;4942701;28;20039;-92
2021/12/13 10:16:33;;;;;;;7.32;3.50;;;;;;;;;;4946519;28;20055;-92
2021/12/13 10:19:00;;;;;;;9.63;3.88;;;;;;;;;;4941868;28;20055;-93
2021/12/13 10:21:26;;;;;;;15.88;10.00;;;;;;;;;;4939870;29;20063;-92
2021/12/13 10:23:54;;;;;;;7.75;4.45;;;;;;;;;;4942306;29;20067;-92
2021/12/13 10:26:21;;;;;;;6.28;3.53;;;;;;;;;;4947876;28;20042;-93
2021/12/13 10:28:58;;;;;;;7.30;3.72;;;;;;;;;;4946325;28;20110;-94
2021/12/13 10:31:26;;;;;;;9.20;4.10;;;;;;;;;;4952519;28;20036;-92
2021/12/13 10:33:53;;;;;;;7.65;4.32;;;;;;;;;;4939626;29;20035;-95
2021/12/13 10:36:19;;;;;;;5.90;3.38;;;;;;;;;;4948187;29;20039;-91
2021/12/13 10:39:07;;;;;;;13.88;4.57;;;;;;;;;;4939521;28;20038;-92
2021/12/13 10:41:43;;;;;;;9.45;3.55;;;;;;;;;;4938706;28;20731;-94
2021/12/13 10:44:12;;;;;;;9.32;3.88;;;;;;;;;;4942628;28;20042;-94
2021/12/13 10:46:41;;;;;;;6.30;3.22;;;;;;;;;;5003101;28;20045;-93
2021/12/13 10:49:10;;;;;;;11.82;5.60;;;;;;;;;;4990317;28;20083;-93
2021/12/13 10:51:39;;;;;;;16.50;5.25;;;;;;;;;;4991368;28;20045;-92
2021/12/13 10:54:10;;;;;;;11.07;4.93;;;;;;;;;;5008716;28;20061;-92
2021/12/13 10:56:39;;;;;;;8.07;4.40;;;;;;;;;;5005325;28;20402;-91
2021/12/13 10:59:08;;;;;;;9.35;3.45;;;;;;;;;;5006217;28;20033;-92
2021/12/13 11:01:36;;;;;;;12.02;4.45;;;;;;;;;;5001229;28;20030;-91
2021/12/13 11:04:03;;;;;;;11.57;5.03;;;;;;;;;;4980970;28;20026;-92
2021/12/13 11:06:29;;;;;;;;;;;8.40;87.70;;;;;;4987166;28;20392;-92
2021/12/13 11:08:56;;;;;;;11.57;4.10;;;;;;;;;;5002512;28;19920;-92
2021/12/13 11:11:24;;;;;;;10.75;4.68;;;;;;;;;;5002939;28;20023;-91
2021/12/13 11:13:52;;;;;;;14.52;3.88;;;;;;;;;;5001486;28;20053;-92
2021/12/13 11:16:25;;;;;;;6.65;4.38;;;;;;;;;;4988187;28;20125;-91
2021/12/13 11:18:52;;;;;;;12.75;4.28;;;;;;;;;;5006070;28;20054;-92
2021/12/13 11:21:20;;;;;;;7.57;3.03;;;;;;;;;;5004801;28;20116;-92
2021/12/13 11:23:46;;;;;;;7.38;3.83;;;;;;;;;;4997535;28;20144;-93
2021/12/13 11:26:15;;;;;;;12.10;5.10;;;;;;;;;;5006982;28;20116;-92
2021/12/13 11:28:41;;;;;;;8.48;4.18;;;;;;;;;;4999290;28;20019;-91
2021/12/13 11:31:34;;;;;;;12.70;5.95;;;;;;;;;;5005843;28;20031;-91
2021/12/13 11:34:01;;;;;;;7.15;4.40;;;;;;;;;;4999520;28;20042;-92
2021/12/13 11:37:04;;;;;;;11.13;4.18;;;8.50;86.60;;;;;;5006883;28;20498;-91
2021/12/13 11:39:38;;;;;;;7.75;3.05;;;;;;;;;;5003172;28;20035;-92
2021/12/13 11:42:22;;;;;;;10.38;4.30;;;8.60;87.00;;;;;;4999132;28;20030;-90
2021/12/13 11:45:33;;;;;;;10.07;4.57;;;8.50;86.70;;;;;;4988449;28;20026;-93
2021/12/13 11:48:02;;;;;;;8.85;4.85;;;;;;;;;;5007607;28;20080;-92
2021/12/13 11:50:53;;;;;;;10.15;5.22;;;8.40;88.30;;;;;;4996129;28;20521;-91
2021/12/13 11:53:45;;;;;;;8.07;4.28;;;8.50;87.70;;;;;;4998945;28;20621;-92
2021/12/13 11:56:29;;;;;;;9.10;4.53;;;;;;;;;;4989995;28;20046;-92
2021/12/13 11:59:11;;;;;;;13.15;5.60;;;;;;;;;;4997065;28;20025;-91
2021/12/13 12:01:56;;;;;;;13.23;4.32;;;;;;;;;;5005420;28;20034;-92
2021/12/13 12:05:04;;;;;;;12.45;5.82;;;8.50;87.10;;;;;;5000279;28;20045;-92
2021/12/13 12:07:43;;;;;;;13.15;4.57;;;;;;;;;;4997309;28;20041;-91
2021/12/13 12:10:15;;;;;;;10.90;3.78;;;;;;;;;;4998827;28;20042;-92
2021/12/13 12:12:53;;;;;;;6.38;3.35;;;;;;;;;;5001392;28;20042;-91
2021/12/13 12:15:21;;;;;;;14.35;6.60;;;;;;;;;;4999769;28;20036;-91
2021/12/13 12:17:47;;;;;;;11.02;5.43;;;;;;;;;;4995534;28;20518;-91
2021/12/13 12:20:16;;;;;;;8.63;4.43;;;;;;;;;;5003030;28;20021;-90
2021/12/13 12:22:58;;;;;;;15.68;5.68;;;;;;;;;;5003315;28;20030;-91
2021/12/13 12:25:27;;;;;;;13.88;5.90;;;;;;;;;;5000855;28;20040;-92
2021/12/13 12:28:02;;;;;;;15.70;4.95;;;;;;;;;;5001886;28;20588;-95
2021/12/13 12:30:31;;;;;;;11.05;4.95;;;;;;;;;;4991767;28;20121;-92
2021/12/13 12:32:59;;;;;;;7.15;3.53;;;;;;;;;;4999816;28;20034;-94
2021/12/13 12:35:28;;;;;;;9.80;3.60;;;;;;;;;;5000822;28;20036;-92
2021/12/13 12:37:59;;;;;;;10.27;5.15;;;;;;;;;;5005970;28;20034;-92
2021/12/13 12:40:49;;;;;;;7.55;4.15;;;;;;;;;;5007784;28;20029;-92
2021/12/13 12:43:19;;;;;;;9.13;3.80;;;;;;;;;;4931560;29;20516;-93
2021/12/13 12:45:49;;;;;;;8.80;4.35;;;;;;;;;;4951964;28;20098;-91
2021/12/13 12:48:25;;;;;;;9.77;4.70;;;;;;;;;;4952381;28;20053;-91
2021/12/13 12:50:54;;;;;;;10.85;4.70;;;;;;;;;;4951446;29;20039;-94
2021/12/13 12:53:35;;;;;;;5.40;3.75;;;;;;;;;;4950329;28;20097;-94
2021/12/13 12:56:05;;;;;;;11.20;5.60;;;;;;;;;;4948365;29;20043;-92
2021/12/13 12:58:33;;;;;;;9.80;3.72;;;;;;;;;;4949016;28;20051;-93
2021/12/13 13:01:01;;;;;;;11.60;4.03;;;;;;;;;;4950852;28;20065;-93
2021/12/13 13:03:32;;;;;;;14.25;6.13;;;;;;;;;;4950444;28;20057;-93
2021/12/13 13:06:04;;;;;;;10.75;3.42;;;;;;;;;;4953503;28;20122;-93
2021/12/13 13:08:32;;;;;;;15.15;6.07;;;;;;;;;;4955001;28;20130;-93
2021/12/13 13:11:43;;;;;;;10.77;4.13;;;;;;;;;;4951207;29;20132;-91
2021/12/13 13:13:51;;;;;;;8.13;3.97;;;;;;;;;;4945277;28;20035;-93
2021/12/13 13:16:18;;;;;;;9.40;4.25;;;;;;;;;;4953223;28;20051;-92
2021/12/13 13:18:45;;;;;;;11.52;3.95;;;;;;;;;;4953086;29;20509;-93
2021/12/13 13:21:11;;;;;;;8.75;4.47;;;;;;;;;;5001742;28;20033;-92
2021/12/13 13:23:46;;;;;;;10.77;4.43;;;;;;;;;;4998508;28;20026;-94
2021/12/13 13:26:12;;;;;;;10.98;4.88;;;;;;;;;;5001098;28;20030;-92
2021/12/13 13:28:41;;;;;;;13.05;4.53;;;;;;;;;;5006317;28;20605;-94
2021/12/13 13:31:10;;;;;;;8.10;4.65;;;;;;;;;;5008128;28;20026;-93
2021/12/13 13:33:42;;;;;;;9.13;4.90;;;;;;;;;;5004661;28;20487;-93
2021/12/13 13:36:18;;;;;;;10.90;4.18;;;;;;;;;;4998421;28;20590;-94
2021/12/13 13:38:45;;;;;;;15.85;4.55;;;;;;;;;;5011912;28;20058;-94
2021/12/13 13:41:18;;;;;;;12.00;4.82;;;;;;;;;;5008751;28;20133;-94
2021/12/13 13:43:44;;;;;;;11.55;4.22;;;;;;;;;;5005094;28;20520;-95
2021/12/13 13:46:10;;;;;;;8.85;4.47;;;;;;;;;;5001569;28;20034;-95
2021/12/13 13:48:38;;;;;;;10.95;3.83;;;;;;;;;;5007650;28;20026;-93
2021/12/13 13:51:12;;;;;;;14.00;4.78;;;;;;;;;;5009324;28;20034;-94
2021/12/13 13:53:40;;;;;;;7.75;4.20;;;;;;;;;;4998657;28;20122;-93
2021/12/13 13:56:06;;;;;;;8.77;4.43;;;;;;;;;;5007458;28;20048;-95
2021/12/13 13:58:44;;;;;;;13.32;4.60;;;;;;;;;;5003268;28;20072;-94
2021/12/13 14:01:13;;;;;;;11.98;5.18;;;;;;;;;;5009327;28;20034;-95
2021/12/13 14:03:40;;;;;;;11.20;3.72;;;;;;;;;;4985771;28;20025;-93
2021/12/13 14:06:08;;;;;;;8.90;3.83;;;;;;;;;;5003310;28;20034;-93
2021/12/13 14:08:40;;;;;;;12.85;5.85;;;;;;;;;;5010028;28;20109;-93
2021/12/13 14:11:10;;;;;;;16.58;4.65;;;;;;;;;;5003102;28;20044;-94
2021/12/13 14:13:38;;;;;;;13.45;4.68;;;;;;;;;;5002340;28;20176;-93
2021/12/13 14:16:12;;;;;;;12.15;4.47;;;;;;;;;;5007815;28;20042;-94
2021/12/13 14:18:38;;;;;;;7.68;4.03;;;;;;;;;;5004707;28;20027;-93
2021/12/13 14:21:10;;;;;;;17.92;4.82;;;;;;;;;;4997534;28;20034;-91
2021/12/13 14:23:38;;;;;;;7.35;4.45;;;;;;;;;;4999656;28;20056;-93
2021/12/13 14:26:04;;;;;;;12.75;5.28;;;;;;;;;;5003475;28;20030;-92
2021/12/13 14:28:29;;;;;;;11.80;4.72;;;;;;;;;;5007808;28;20034;-93
2021/12/13 14:30:56;;;;;;;12.52;5.40;;;;;;;;;;5008325;28;20040;-90
2021/12/13 14:33:24;;;;;;;15.90;5.40;;;;;;;;;;4997839;28;20026;-90
2021/12/13 14:36:10;;;;;;;11.30;4.13;;;;;;;;;;4995157;28;20046;-90
2021/12/13 14:38:41;;;;;;;11.55;5.60;;;;;;;;;;4982066;28;20053;-92
2021/12/13 14:41:10;;;;;;;15.05;4.72;;;;;;;;;;5002361;28;20048;-94
2021/12/13 14:43:41;;;;;;;11.52;5.68;;;;;;;;;;5003526;28;20064;-91
2021/12/13 14:46:13;;;;;;;12.65;5.85;;;;;;;;;;4985345;28;20046;-91
2021/12/13 14:48:40;;;;;;;13.90;4.80;;;;;;;;;;4986900;28;20034;-92
2021/12/13 14:51:08;;;;;;;14.40;6.25;;;;;;;;;;5008002;28;20044;-91
2021/12/13 14:53:36;;;;;;;10.80;5.18;;;;;;;;;;5004550;28;20089;-91
2021/12/13 14:56:05;;;;;;;10.65;4.30;;;;;;;;;;4999780;28;20038;-92
2021/12/13 14:58:40;;;;;;;15.15;5.72;;;;;;;;;;5001792;28;20480;-93
2021/12/13 15:01:12;;;;;;;11.73;4.97;;;;;;;;;;4996798;28;20030;-93